sensor_id;sensor_type;location;lat;lon;timestamp;pressure;altitude;pressure_sealevel;temperature
64296;BMP280;51082;38.236;15.432;2022-08-27T00:00:13;100958.47;;;24.54
64296;BMP280;51082;38.236;15.432;2022-08-27T00:01:18;100959.84;;;24.52
64296;BMP280;51082;38.236;15.432;2022-08-27T00:02:23;100954.28;;;24.48
64296;BMP280;51082;38.236;15.432;2022-08-27T00:03:25;100958.00;;;24.47
64296;BMP280;51082;38.236;15.432;2022-08-27T00:04:28;100952.69;;;24.47
64296;BMP280;51082;38.236;15.432;2022-08-27T00:05:30;100952.63;;;24.52
64296;BMP280;51082;38.236;15.432;2022-08-27T00:06:33;100956.88;;;24.53
64296;BMP280;51082;38.236;15.432;2022-08-27T00:07:36;100954.47;;;24.57
64296;BMP280;51082;38.236;15.432;2022-08-27T00:08:39;100957.91;;;24.57
64296;BMP280;51082;38.236;15.432;2022-08-27T00:09:43;100950.66;;;24.63
64296;BMP280;51082;38.236;15.432;2022-08-27T00:10:45;100958.16;;;24.61
64296;BMP280;51082;38.236;15.432;2022-08-27T00:11:47;100960.59;;;24.57
64296;BMP280;51082;38.236;15.432;2022-08-27T00:12:53;100957.38;;;24.55
64296;BMP280;51082;38.236;15.432;2022-08-27T00:13:59;100954.16;;;24.58
64296;BMP280;51082;38.236;15.432;2022-08-27T00:15:03;100956.81;;;24.58
64296;BMP280;51082;38.236;15.432;2022-08-27T00:16:10;100956.34;;;24.56
64296;BMP280;51082;38.236;15.432;2022-08-27T00:17:16;100955.75;;;24.59
64296;BMP280;51082;38.236;15.432;2022-08-27T00:18:18;100960.00;;;24.60
64296;BMP280;51082;38.236;15.432;2022-08-27T00:19:24;100961.06;;;24.59
64296;BMP280;51082;38.236;15.432;2022-08-27T00:20:26;100954.94;;;24.59
64296;BMP280;51082;38.236;15.432;2022-08-27T00:21:29;100956.28;;;24.61
64296;BMP280;51082;38.236;15.432;2022-08-27T00:22:30;100959.00;;;24.56
64296;BMP280;51082;38.236;15.432;2022-08-27T00:23:36;100959.25;;;24.55
64296;BMP280;51082;38.236;15.432;2022-08-27T00:24:38;100962.22;;;24.53
64296;BMP280;51082;38.236;15.432;2022-08-27T00:25:42;100949.97;;;24.52
64296;BMP280;51082;38.236;15.432;2022-08-27T00:26:45;100955.06;;;24.48
64296;BMP280;51082;38.236;15.432;2022-08-27T00:27:48;100954.53;;;24.46
64296;BMP280;51082;38.236;15.432;2022-08-27T00:28:50;100955.84;;;24.49
64296;BMP280;51082;38.236;15.432;2022-08-27T00:29:53;100951.56;;;24.53
64296;BMP280;51082;38.236;15.432;2022-08-27T00:30:58;100956.94;;;24.48
64296;BMP280;51082;38.236;15.432;2022-08-27T00:32:04;100947.88;;;24.49
64296;BMP280;51082;38.236;15.432;2022-08-27T00:33:09;100948.34;;;24.51
64296;BMP280;51082;38.236;15.432;2022-08-27T00:34:11;100957.69;;;24.54
64296;BMP280;51082;38.236;15.432;2022-08-27T00:35:14;100953.16;;;24.54
64296;BMP280;51082;38.236;15.432;2022-08-27T00:36:17;100948.09;;;24.53
64296;BMP280;51082;38.236;15.432;2022-08-27T00:37:19;100950.25;;;24.51
64296;BMP280;51082;38.236;15.432;2022-08-27T00:38:27;100946.78;;;24.50
64296;BMP280;51082;38.236;15.432;2022-08-27T00:39:29;100950.03;;;24.47
64296;BMP280;51082;38.236;15.432;2022-08-27T00:40:31;100942.03;;;24.47
64296;BMP280;51082;38.236;15.432;2022-08-27T00:41:35;100940.84;;;24.58
64296;BMP280;51082;38.236;15.432;2022-08-27T00:42:38;100941.34;;;24.60
64296;BMP280;51082;38.236;15.432;2022-08-27T00:43:46;100936.03;;;24.60
64296;BMP280;51082;38.236;15.432;2022-08-27T00:44:51;100931.22;;;24.62
64296;BMP280;51082;38.236;15.432;2022-08-27T00:46:01;100937.06;;;24.64
64296;BMP280;51082;38.236;15.432;2022-08-27T00:47:06;100932.34;;;24.61
64296;BMP280;51082;38.236;15.432;2022-08-27T00:48:12;100925.97;;;24.57
64296;BMP280;51082;38.236;15.432;2022-08-27T00:49:19;100926.00;;;24.52
64296;BMP280;51082;38.236;15.432;2022-08-27T00:50:30;100925.44;;;24.55
64296;BMP280;51082;38.236;15.432;2022-08-27T00:51:35;100929.72;;;24.51
64296;BMP280;51082;38.236;15.432;2022-08-27T00:52:44;100923.41;;;24.47
64296;BMP280;51082;38.236;15.432;2022-08-27T00:53:46;100922.88;;;24.45
64296;BMP280;51082;38.236;15.432;2022-08-27T00:54:51;100918.66;;;24.44
64296;BMP280;51082;38.236;15.432;2022-08-27T00:55:56;100930.38;;;24.43
64296;BMP280;51082;38.236;15.432;2022-08-27T00:57:02;100926.66;;;24.44
64296;BMP280;51082;38.236;15.432;2022-08-27T00:59:13;100923.72;;;24.40
64296;BMP280;51082;38.236;15.432;2022-08-27T01:00:18;100925.91;;;24.38
64296;BMP280;51082;38.236;15.432;2022-08-27T01:01:26;100927.72;;;24.43
64296;BMP280;51082;38.236;15.432;2022-08-27T01:02:28;100913.88;;;24.41
64296;BMP280;51082;38.236;15.432;2022-08-27T01:03:32;100925.06;;;24.43
64296;BMP280;51082;38.236;15.432;2022-08-27T01:04:36;100917.31;;;24.41
64296;BMP280;51082;38.236;15.432;2022-08-27T01:05:40;100921.63;;;24.37
64296;BMP280;51082;38.236;15.432;2022-08-27T01:06:43;100919.25;;;24.36
64296;BMP280;51082;38.236;15.432;2022-08-27T01:07:48;100912.31;;;24.40
64296;BMP280;51082;38.236;15.432;2022-08-27T01:08:52;100923.00;;;24.35
64296;BMP280;51082;38.236;15.432;2022-08-27T01:10:00;100933.06;;;24.38
64296;BMP280;51082;38.236;15.432;2022-08-27T01:11:04;100925.63;;;24.40
64296;BMP280;51082;38.236;15.432;2022-08-27T01:12:17;100923.00;;;24.35
64296;BMP280;51082;38.236;15.432;2022-08-27T01:13:22;100925.91;;;24.33
64296;BMP280;51082;38.236;15.432;2022-08-27T01:14:25;100927.59;;;24.29
64296;BMP280;51082;38.236;15.432;2022-08-27T01:15:28;100933.69;;;24.30
64296;BMP280;51082;38.236;15.432;2022-08-27T01:16:36;100932.06;;;24.34
64296;BMP280;51082;38.236;15.432;2022-08-27T01:17:45;100925.91;;;24.33
64296;BMP280;51082;38.236;15.432;2022-08-27T01:18:48;100925.66;;;24.35
64296;BMP280;51082;38.236;15.432;2022-08-27T01:19:54;100929.94;;;24.31
64296;BMP280;51082;38.236;15.432;2022-08-27T01:21:09;100929.66;;;24.32
64296;BMP280;51082;38.236;15.432;2022-08-27T01:22:21;100932.06;;;24.34
64296;BMP280;51082;38.236;15.432;2022-08-27T01:23:30;100931.53;;;24.32
64296;BMP280;51082;38.236;15.432;2022-08-27T01:24:42;100935.78;;;24.33
64296;BMP280;51082;38.236;15.432;2022-08-27T01:25:44;100935.78;;;24.33
64296;BMP280;51082;38.236;15.432;2022-08-27T01:26:48;100936.88;;;24.32
64296;BMP280;51082;38.236;15.432;2022-08-27T01:27:50;100938.97;;;24.35
64296;BMP280;51082;38.236;15.432;2022-08-27T01:28:58;100935.78;;;24.33
64296;BMP280;51082;38.236;15.432;2022-08-27T01:30:04;100933.41;;;24.31
64296;BMP280;51082;38.236;15.432;2022-08-27T01:31:11;100930.47;;;24.33
64296;BMP280;51082;38.236;15.432;2022-08-27T01:32:17;100935.28;;;24.31
64296;BMP280;51082;38.236;15.432;2022-08-27T01:33:20;100932.59;;;24.31
64296;BMP280;51082;38.236;15.432;2022-08-27T01:34:22;100939.28;;;24.28
64296;BMP280;51082;38.236;15.432;2022-08-27T01:35:26;100939.28;;;24.28
64296;BMP280;51082;38.236;15.432;2022-08-27T01:36:27;100935.34;;;24.26
64296;BMP280;51082;38.236;15.432;2022-08-27T01:37:30;100930.53;;;24.23
64296;BMP280;51082;38.236;15.432;2022-08-27T01:38:33;100929.78;;;24.22
64296;BMP280;51082;38.236;15.432;2022-08-27T01:39:39;100933.50;;;24.21
64296;BMP280;51082;38.236;15.432;2022-08-27T01:40:41;100933.75;;;24.20
64296;BMP280;51082;38.236;15.432;2022-08-27T01:41:47;100925.78;;;24.20
64296;BMP280;51082;38.236;15.432;2022-08-27T01:42:54;100931.88;;;24.20
64296;BMP280;51082;38.236;15.432;2022-08-27T01:44:00;100934.06;;;24.18
64296;BMP280;51082;38.236;15.432;2022-08-27T01:45:04;100930.06;;;24.21
64296;BMP280;51082;38.236;15.432;2022-08-27T01:46:07;100931.09;;;24.25
64296;BMP280;51082;38.236;15.432;2022-08-27T01:47:11;100935.56;;;24.29
64296;BMP280;51082;38.236;15.432;2022-08-27T01:48:17;100927.59;;;24.24
64296;BMP280;51082;38.236;15.432;2022-08-27T01:49:19;100930.81;;;24.26
64296;BMP280;51082;38.236;15.432;2022-08-27T01:50:24;100929.22;;;24.25
64296;BMP280;51082;38.236;15.432;2022-08-27T01:51:26;100930.25;;;24.29
64296;BMP280;51082;38.236;15.432;2022-08-27T01:52:29;100934.19;;;24.32
64296;BMP280;51082;38.236;15.432;2022-08-27T01:53:35;100934.75;;;24.29
64296;BMP280;51082;38.236;15.432;2022-08-27T01:54:43;100932.09;;;24.29
64296;BMP280;51082;38.236;15.432;2022-08-27T01:55:45;100929.44;;;24.29
64296;BMP280;51082;38.236;15.432;2022-08-27T01:56:48;100935.56;;;24.29
64296;BMP280;51082;38.236;15.432;2022-08-27T01:57:51;100926.22;;;24.32
64296;BMP280;51082;38.236;15.432;2022-08-27T01:58:54;100929.44;;;24.29
64296;BMP280;51082;38.236;15.432;2022-08-27T01:59:56;100931.03;;;24.30
64296;BMP280;51082;38.236;15.432;2022-08-27T02:01:01;100918.00;;;24.28
64296;BMP280;51082;38.236;15.432;2022-08-27T02:02:04;100928.34;;;24.30
64296;BMP280;51082;38.236;15.432;2022-08-27T02:03:08;100922.53;;;24.28
64296;BMP280;51082;38.236;15.432;2022-08-27T02:04:13;100924.69;;;24.26
64296;BMP280;51082;38.236;15.432;2022-08-27T02:05:18;100922.53;;;24.28
64296;BMP280;51082;38.236;15.432;2022-08-27T02:06:21;100927.06;;;24.27
64296;BMP280;51082;38.236;15.432;2022-08-27T02:07:23;100923.84;;;24.30
64296;BMP280;51082;38.236;15.432;2022-08-27T02:08:26;100919.31;;;24.31
64296;BMP280;51082;38.236;15.432;2022-08-27T02:09:28;100923.56;;;24.32
64296;BMP280;51082;38.236;15.432;2022-08-27T02:10:34;100923.56;;;24.32
64296;BMP280;51082;38.236;15.432;2022-08-27T02:11:39;100924.06;;;24.34
64296;BMP280;51082;38.236;15.432;2022-08-27T02:12:42;100925.41;;;24.31
64296;BMP280;51082;38.236;15.432;2022-08-27T02:13:44;100923.56;;;24.32
64296;BMP280;51082;38.236;15.432;2022-08-27T02:14:47;100925.69;;;24.30
64296;BMP280;51082;38.236;15.432;2022-08-27T02:15:54;100923.56;;;24.32
64296;BMP280;51082;38.236;15.432;2022-08-27T02:16:57;100927.06;;;24.27
64296;BMP280;51082;38.236;15.432;2022-08-27T02:17:58;100922.75;;;24.31
64296;BMP280;51082;38.236;15.432;2022-08-27T02:19:02;100925.19;;;24.28
64296;BMP280;51082;38.236;15.432;2022-08-27T02:20:04;100919.38;;;24.26
64296;BMP280;51082;38.236;15.432;2022-08-27T02:21:11;100919.91;;;24.23
64296;BMP280;51082;38.236;15.432;2022-08-27T02:22:14;100920.44;;;24.20
64296;BMP280;51082;38.236;15.432;2022-08-27T02:23:17;100918.91;;;24.19
64296;BMP280;51082;38.236;15.432;2022-08-27T02:24:19;100909.81;;;24.20
64296;BMP280;51082;38.236;15.432;2022-08-27T02:25:22;100915.72;;;24.17
64296;BMP280;51082;38.236;15.432;2022-08-27T02:26:25;100911.44;;;24.21
64296;BMP280;51082;38.236;15.432;2022-08-27T02:27:31;100915.13;;;24.20
64296;BMP280;51082;38.236;15.432;2022-08-27T02:28:35;100921.78;;;24.22
64296;BMP280;51082;38.236;15.432;2022-08-27T02:29:38;100911.44;;;24.21
64296;BMP280;51082;38.236;15.432;2022-08-27T02:30:42;100909.81;;;24.20
64296;BMP280;51082;38.236;15.432;2022-08-27T02:31:45;100908.56;;;24.12
64296;BMP280;51082;38.236;15.432;2022-08-27T02:32:47;100910.94;;;24.13
64296;BMP280;51082;38.236;15.432;2022-08-27T02:33:53;100921.09;;;24.11
64296;BMP280;51082;38.236;15.432;2022-08-27T02:34:55;100922.16;;;24.10
64296;BMP280;51082;38.236;15.432;2022-08-27T02:36:01;100923.53;;;24.08
64296;BMP280;51082;38.236;15.432;2022-08-27T02:37:03;100916.03;;;24.10
64296;BMP280;51082;38.236;15.432;2022-08-27T02:38:07;100917.84;;;24.15
64296;BMP280;51082;38.236;15.432;2022-08-27T02:39:12;100921.84;;;24.17
64296;BMP280;51082;38.236;15.432;2022-08-27T02:40:18;100924.50;;;24.17
64296;BMP280;51082;38.236;15.432;2022-08-27T02:41:20;100922.63;;;24.18
64296;BMP280;51082;38.236;15.432;2022-08-27T02:42:24;100931.69;;;24.17
64296;BMP280;51082;38.236;15.432;2022-08-27T02:43:26;100938.03;;;24.21
64296;BMP280;51082;38.236;15.432;2022-08-27T02:44:28;100931.56;;;24.27
64296;BMP280;51082;38.236;15.432;2022-08-27T02:45:32;100935.78;;;24.33
64296;BMP280;51082;38.236;15.432;2022-08-27T02:46:36;100936.34;;;24.30
64296;BMP280;51082;38.236;15.432;2022-08-27T02:47:39;100936.63;;;24.28
64296;BMP280;51082;38.236;15.432;2022-08-27T02:48:42;100932.09;;;24.29
64296;BMP280;51082;38.236;15.432;2022-08-27T02:49:45;100927.34;;;24.26
64296;BMP280;51082;38.236;15.432;2022-08-27T02:50:47;100940.66;;;24.26
64296;BMP280;51082;38.236;15.432;2022-08-27T02:51:52;100930.81;;;24.26
64296;BMP280;51082;38.236;15.432;2022-08-27T02:52:55;100933.16;;;24.28
64296;BMP280;51082;38.236;15.432;2022-08-27T02:53:58;100935.34;;;24.26
64296;BMP280;51082;38.236;15.432;2022-08-27T02:55:02;100932.69;;;24.26
64296;BMP280;51082;38.236;15.432;2022-08-27T02:56:04;100935.34;;;24.26
64296;BMP280;51082;38.236;15.432;2022-08-27T02:57:08;100934.75;;;24.29
64296;BMP280;51082;38.236;15.432;2022-08-27T02:58:11;100932.91;;;24.24
64296;BMP280;51082;38.236;15.432;2022-08-27T02:59:17;100939.06;;;24.25
64296;BMP280;51082;38.236;15.432;2022-08-27T03:00:21;100941.19;;;24.23
64296;BMP280;51082;38.236;15.432;2022-08-27T03:01:24;100928.97;;;24.22
64296;BMP280;51082;38.236;15.432;2022-08-27T03:02:26;100931.63;;;24.22
64296;BMP280;51082;38.236;15.432;2022-08-27T03:03:29;100933.75;;;24.25
64296;BMP280;51082;38.236;15.432;2022-08-27T03:04:31;100934.25;;;24.27
64296;BMP280;51082;38.236;15.432;2022-08-27T03:05:34;100926.25;;;24.27
64296;BMP280;51082;38.236;15.432;2022-08-27T03:06:36;100924.69;;;24.26
64296;BMP280;51082;38.236;15.432;2022-08-27T03:07:39;100929.78;;;24.22
64296;BMP280;51082;38.236;15.432;2022-08-27T03:08:42;100932.69;;;24.26
64296;BMP280;51082;38.236;15.432;2022-08-27T03:09:45;100931.88;;;24.25
64296;BMP280;51082;38.236;15.432;2022-08-27T03:10:46;100928.97;;;24.22
64296;BMP280;51082;38.236;15.432;2022-08-27T03:11:49;100926.09;;;24.18
64296;BMP280;51082;38.236;15.432;2022-08-27T03:12:51;100935.38;;;24.16
64296;BMP280;51082;38.236;15.432;2022-08-27T03:13:55;100930.06;;;24.16
64296;BMP280;51082;38.236;15.432;2022-08-27T03:14:57;100930.28;;;24.19
64296;BMP280;51082;38.236;15.432;2022-08-27T03:16:00;100928.44;;;24.20
64296;BMP280;51082;38.236;15.432;2022-08-27T03:17:02;100929.78;;;24.22
64296;BMP280;51082;38.236;15.432;2022-08-27T03:18:18;100927.38;;;24.21
64296;BMP280;51082;38.236;15.432;2022-08-27T03:19:22;100931.88;;;24.20
64296;BMP280;51082;38.236;15.432;2022-08-27T03:20:24;100925.53;;;24.21
64296;BMP280;51082;38.236;15.432;2022-08-27T03:21:27;100929.53;;;24.19
64296;BMP280;51082;38.236;15.432;2022-08-27T03:22:30;100929.78;;;24.22
64296;BMP280;51082;38.236;15.432;2022-08-27T03:23:34;100932.72;;;24.21
64296;BMP280;51082;38.236;15.432;2022-08-27T03:24:37;100935.13;;;24.17
64296;BMP280;51082;38.236;15.432;2022-08-27T03:25:44;100936.47;;;24.15
64296;BMP280;51082;38.236;15.432;2022-08-27T03:26:46;100935.38;;;24.16
64296;BMP280;51082;38.236;15.432;2022-08-27T03:27:48;100937.56;;;24.13
64296;BMP280;51082;38.236;15.432;2022-08-27T03:28:51;100930.91;;;24.11
64296;BMP280;51082;38.236;15.432;2022-08-27T03:29:57;100943.44;;;24.10
64296;BMP280;51082;38.236;15.432;2022-08-27T03:31:02;100934.41;;;24.11
64296;BMP280;51082;38.236;15.432;2022-08-27T03:32:05;100939.72;;;24.11
64296;BMP280;51082;38.236;15.432;2022-08-27T03:33:12;100940.50;;;24.12
64296;BMP280;51082;38.236;15.432;2022-08-27T03:34:14;100939.16;;;24.15
64296;BMP280;51082;38.236;15.432;2022-08-27T03:35:17;100938.34;;;24.14
64296;BMP280;51082;38.236;15.432;2022-08-27T03:36:22;100942.88;;;24.13
64296;BMP280;51082;38.236;15.432;2022-08-27T03:37:25;100939.94;;;24.15
64296;BMP280;51082;38.236;15.432;2022-08-27T03:38:27;100936.72;;;24.18
64296;BMP280;51082;38.236;15.432;2022-08-27T03:39:29;100941.81;;;24.15
64296;BMP280;51082;38.236;15.432;2022-08-27T03:40:31;100937.31;;;24.10
64296;BMP280;51082;38.236;15.432;2022-08-27T03:41:34;100941.03;;;24.09
64296;BMP280;51082;38.236;15.432;2022-08-27T03:42:36;100944.22;;;24.11
64296;BMP280;51082;38.236;15.432;2022-08-27T03:43:39;100939.97;;;24.10
64296;BMP280;51082;38.236;15.432;2022-08-27T03:44:41;100944.81;;;24.08
64296;BMP280;51082;38.236;15.432;2022-08-27T03:45:46;100948.22;;;24.08
64296;BMP280;51082;38.236;15.432;2022-08-27T03:46:48;100947.72;;;24.11
64296;BMP280;51082;38.236;15.432;2022-08-27T03:47:51;100940.50;;;24.12
64296;BMP280;51082;38.236;15.432;2022-08-27T03:48:53;100948.47;;;24.12
64296;BMP280;51082;38.236;15.432;2022-08-27T03:49:56;100945.81;;;24.12
64296;BMP280;51082;38.236;15.432;2022-08-27T03:50:58;100936.50;;;24.09
64296;BMP280;51082;38.236;15.432;2022-08-27T03:52:01;100943.22;;;24.07
64296;BMP280;51082;38.236;15.432;2022-08-27T03:53:04;100938.94;;;24.06
64296;BMP280;51082;38.236;15.432;2022-08-27T03:54:07;100946.13;;;24.05
64296;BMP280;51082;38.236;15.432;2022-08-27T03:55:09;100943.22;;;24.07
64296;BMP280;51082;38.236;15.432;2022-08-27T03:56:15;100941.59;;;24.06
64296;BMP280;51082;38.236;15.432;2022-08-27T03:57:17;100948.78;;;24.05
64296;BMP280;51082;38.236;15.432;2022-08-27T03:58:19;100942.97;;;24.03
64296;BMP280;51082;38.236;15.432;2022-08-27T03:59:22;100944.03;;;24.02
64296;BMP280;51082;38.236;15.432;2022-08-27T04:00:23;100944.56;;;24.04
64296;BMP280;51082;38.236;15.432;2022-08-27T04:01:29;100942.97;;;24.03
64296;BMP280;51082;38.236;15.432;2022-08-27T04:02:30;100947.22;;;24.04
64296;BMP280;51082;38.236;15.432;2022-08-27T04:03:33;100944.22;;;24.11
64296;BMP280;51082;38.236;15.432;2022-08-27T04:04:35;100948.75;;;24.10
64296;BMP280;51082;38.236;15.432;2022-08-27T04:05:40;100946.09;;;24.10
64296;BMP280;51082;38.236;15.432;2022-08-27T04:06:45;100943.44;;;24.10
64296;BMP280;51082;38.236;15.432;2022-08-27T04:07:48;100940.25;;;24.08
64296;BMP280;51082;38.236;15.432;2022-08-27T04:08:50;100949.34;;;24.07
64296;BMP280;51082;38.236;15.432;2022-08-27T04:09:55;100942.13;;;24.08
64296;BMP280;51082;38.236;15.432;2022-08-27T04:11:03;100947.16;;;24.09
64296;BMP280;51082;38.236;15.432;2022-08-27T04:12:11;100947.94;;;24.10
64296;BMP280;51082;38.236;15.432;2022-08-27T04:13:13;100939.19;;;24.09
64296;BMP280;51082;38.236;15.432;2022-08-27T04:14:16;100948.75;;;24.10
64296;BMP280;51082;38.236;15.432;2022-08-27T04:15:17;100940.50;;;24.12
64296;BMP280;51082;38.236;15.432;2022-08-27T04:16:20;100941.56;;;24.11
64296;BMP280;51082;38.236;15.432;2022-08-27T04:17:24;100945.03;;;24.11
64296;BMP280;51082;38.236;15.432;2022-08-27T04:18:27;100946.03;;;24.16
64296;BMP280;51082;38.236;15.432;2022-08-27T04:19:30;100951.34;;;24.16
64296;BMP280;51082;38.236;15.432;2022-08-27T04:20:34;100947.38;;;24.18
64296;BMP280;51082;38.236;15.432;2022-08-27T04:21:38;100946.56;;;24.18
64296;BMP280;51082;38.236;15.432;2022-08-27T04:22:41;100947.63;;;24.17
64296;BMP280;51082;38.236;15.432;2022-08-27T04:23:45;100949.78;;;24.15
64296;BMP280;51082;38.236;15.432;2022-08-27T04:24:48;100947.91;;;24.15
64296;BMP280;51082;38.236;15.432;2022-08-27T04:25:50;100945.53;;;24.13
64296;BMP280;51082;38.236;15.432;2022-08-27T04:26:54;100948.44;;;24.17
64296;BMP280;51082;38.236;15.432;2022-08-27T04:27:55;100951.13;;;24.12
64296;BMP280;51082;38.236;15.432;2022-08-27T04:28:58;100944.22;;;24.11
64296;BMP280;51082;38.236;15.432;2022-08-27T04:30:03;100946.38;;;24.09
64296;BMP280;51082;38.236;15.432;2022-08-27T04:31:07;100950.88;;;24.08
64296;BMP280;51082;38.236;15.432;2022-08-27T04:32:09;100956.22;;;24.08
64296;BMP280;51082;38.236;15.432;2022-08-27T04:33:13;100951.34;;;24.16
64296;BMP280;51082;38.236;15.432;2022-08-27T04:34:15;100949.72;;;24.20
64296;BMP280;51082;38.236;15.432;2022-08-27T04:35:21;100948.69;;;24.21
64296;BMP280;51082;38.236;15.432;2022-08-27T04:36:22;100955.59;;;24.22
64296;BMP280;51082;38.236;15.432;2022-08-27T04:37:30;100954.00;;;24.21
64296;BMP280;51082;38.236;15.432;2022-08-27T04:38:35;100966.78;;;24.19
64296;BMP280;51082;38.236;15.432;2022-08-27T04:39:37;100966.25;;;24.17
64296;BMP280;51082;38.236;15.432;2022-08-27T04:40:39;100964.13;;;24.19
64296;BMP280;51082;38.236;15.432;2022-08-27T04:42:00;100974.47;;;24.20
64296;BMP280;51082;38.236;15.432;2022-08-27T04:43:03;100964.41;;;24.17
64296;BMP280;51082;38.236;15.432;2022-08-27T04:44:09;100961.78;;;24.12
64296;BMP280;51082;38.236;15.432;2022-08-27T04:45:12;100971.66;;;24.11
64296;BMP280;51082;38.236;15.432;2022-08-27T04:46:19;100967.63;;;24.14
64296;BMP280;51082;38.236;15.432;2022-08-27T04:47:20;100961.78;;;24.12
64296;BMP280;51082;38.236;15.432;2022-08-27T04:48:25;100959.06;;;24.17
64296;BMP280;51082;38.236;15.432;2022-08-27T04:49:28;100972.09;;;24.19
64296;BMP280;51082;38.236;15.432;2022-08-27T04:50:31;100964.13;;;24.19
64296;BMP280;51082;38.236;15.432;2022-08-27T04:51:33;100963.34;;;24.18
64296;BMP280;51082;38.236;15.432;2022-08-27T04:52:35;100963.03;;;24.20
64296;BMP280;51082;38.236;15.432;2022-08-27T04:53:37;100966.47;;;24.25
64296;BMP280;51082;38.236;15.432;2022-08-27T04:54:40;100961.72;;;24.22
64296;BMP280;51082;38.236;15.432;2022-08-27T04:55:48;100966.72;;;24.24
64296;BMP280;51082;38.236;15.432;2022-08-27T04:56:50;100973.91;;;24.23
64296;BMP280;51082;38.236;15.432;2022-08-27T04:57:55;100966.47;;;24.20
64296;BMP280;51082;38.236;15.432;2022-08-27T04:58:58;100970.75;;;24.21
64296;BMP280;51082;38.236;15.432;2022-08-27T05:00:01;100964.13;;;24.19
64296;BMP280;51082;38.236;15.432;2022-08-27T05:01:03;100963.03;;;24.20
64296;BMP280;51082;38.236;15.432;2022-08-27T05:02:08;100961.97;;;24.21
64296;BMP280;51082;38.236;15.432;2022-08-27T05:03:14;100966.72;;;24.24
64296;BMP280;51082;38.236;15.432;2022-08-27T05:04:18;100974.16;;;24.27
64296;BMP280;51082;38.236;15.432;2022-08-27T05:05:21;100960.34;;;24.25
64296;BMP280;51082;38.236;15.432;2022-08-27T05:06:24;100966.69;;;24.29
64296;BMP280;51082;38.236;15.432;2022-08-27T05:07:29;100971.22;;;24.28
64296;BMP280;51082;38.236;15.432;2022-08-27T05:08:32;100971.69;;;24.35
64296;BMP280;51082;38.236;15.432;2022-08-27T05:09:35;100967.16;;;24.36
64296;BMP280;51082;38.236;15.432;2022-08-27T05:10:41;100969.81;;;24.36
64296;BMP280;51082;38.236;15.432;2022-08-27T05:11:44;100975.94;;;24.36
64296;BMP280;51082;38.236;15.432;2022-08-27T05:12:46;100980.97;;;24.38
64296;BMP280;51082;38.236;15.432;2022-08-27T05:13:49;100978.84;;;24.40
64296;BMP280;51082;38.236;15.432;2022-08-27T05:14:53;100979.34;;;24.42
64296;BMP280;51082;38.236;15.432;2022-08-27T05:16:00;100971.34;;;24.42
64296;BMP280;51082;38.236;15.432;2022-08-27T05:17:02;100980.38;;;24.46
64296;BMP280;51082;38.236;15.432;2022-08-27T05:18:11;100979.31;;;24.47
64296;BMP280;51082;38.236;15.432;2022-08-27T05:19:13;100985.41;;;24.47
64296;BMP280;51082;38.236;15.432;2022-08-27T05:20:18;100987.25;;;24.52
64296;BMP280;51082;38.236;15.432;2022-08-27T05:21:21;100989.88;;;24.57
64296;BMP280;51082;38.236;15.432;2022-08-27T05:22:25;100982.91;;;24.61
64296;BMP280;51082;38.236;15.432;2022-08-27T05:23:27;100994.84;;;24.64
64296;BMP280;51082;38.236;15.432;2022-08-27T05:24:32;100988.72;;;24.63
64296;BMP280;51082;38.236;15.432;2022-08-27T05:25:37;100987.66;;;24.64
64296;BMP280;51082;38.236;15.432;2022-08-27T05:26:46;100984.13;;;24.69
64296;BMP280;51082;38.236;15.432;2022-08-27T05:27:52;100984.59;;;24.76
64296;BMP280;51082;38.236;15.432;2022-08-27T05:28:54;100978.66;;;24.84
64296;BMP280;51082;38.236;15.432;2022-08-27T05:29:59;100988.72;;;24.87
64296;BMP280;51082;38.236;15.432;2022-08-27T05:31:07;100990.56;;;24.92
64296;BMP280;51082;38.236;15.432;2022-08-27T05:32:10;100991.16;;;24.89
64296;BMP280;51082;38.236;15.432;2022-08-27T05:33:15;100990.06;;;24.90
64296;BMP280;51082;38.236;15.432;2022-08-27T05:34:21;100987.41;;;24.90
64296;BMP280;51082;38.236;15.432;2022-08-27T05:35:27;100988.97;;;24.91
64296;BMP280;51082;38.236;15.432;2022-08-27T05:36:31;100993.72;;;24.94
64296;BMP280;51082;38.236;15.432;2022-08-27T05:37:34;100990.50;;;24.97
64296;BMP280;51082;38.236;15.432;2022-08-27T05:38:36;100985.34;;;25.05
64296;BMP280;51082;38.236;15.432;2022-08-27T05:39:39;100987.19;;;25.10
64296;BMP280;51082;38.236;15.432;2022-08-27T05:40:41;100991.91;;;25.13
64296;BMP280;51082;38.236;15.432;2022-08-27T05:41:48;100982.28;;;25.17
64296;BMP280;51082;38.236;15.432;2022-08-27T05:42:58;100985.44;;;25.19
64296;BMP280;51082;38.236;15.432;2022-08-27T05:44:07;100987.28;;;25.24
64296;BMP280;51082;38.236;15.432;2022-08-27T05:45:10;100987.47;;;25.27
64296;BMP280;51082;38.236;15.432;2022-08-27T05:46:23;100987.47;;;25.27
64296;BMP280;51082;38.236;15.432;2022-08-27T05:47:26;100983.94;;;25.32
64296;BMP280;51082;38.236;15.432;2022-08-27T05:48:29;100982.03;;;25.37
64296;BMP280;51082;38.236;15.432;2022-08-27T05:49:31;100990.50;;;25.39
64296;BMP280;51082;38.236;15.432;2022-08-27T05:50:35;100986.75;;;25.40
64296;BMP280;51082;38.236;15.432;2022-08-27T05:51:42;100987.22;;;25.47
64296;BMP280;51082;38.236;15.432;2022-08-27T05:52:44;100983.97;;;25.50
64296;BMP280;51082;38.236;15.432;2022-08-27T05:53:46;100985.53;;;25.51
64296;BMP280;51082;38.236;15.432;2022-08-27T05:54:52;100976.91;;;25.60
64296;BMP280;51082;38.236;15.432;2022-08-27T05:55:54;100985.31;;;25.67
64296;BMP280;51082;38.236;15.432;2022-08-27T05:56:56;100987.91;;;25.72
64296;BMP280;51082;38.236;15.432;2022-08-27T05:58:00;100987.81;;;25.77
64296;BMP280;51082;38.236;15.432;2022-08-27T05:59:03;100990.72;;;25.80